sensor_id;sensor_type;location;lat;lon;timestamp;P1;durP1;ratioP1;P2;durP2;ratioP2
69246;SDS011;56358;56.328;43.992;2022-12-29T00:01:29;25.23;;;9.20;;
69246;SDS011;56358;56.328;43.992;2022-12-29T00:03:30;31.92;;;10.68;;
69246;SDS011;56358;56.328;43.992;2022-12-29T00:05:30;27.92;;;9.48;;
69246;SDS011;56358;56.328;43.992;2022-12-29T00:07:31;27.35;;;10.63;;
69246;SDS011;56358;56.328;43.992;2022-12-29T00:09:32;29.73;;;9.90;;
69246;SDS011;56358;56.328;43.992;2022-12-29T00:11:34;38.20;;;11.85;;
69246;SDS011;56358;56.328;43.992;2022-12-29T00:13:35;30.95;;;9.73;;
69246;SDS011;56358;56.328;43.992;2022-12-29T00:15:54;28.13;;;10.35;;
69246;SDS011;56358;56.328;43.992;2022-12-29T00:17:54;31.27;;;11.25;;
69246;SDS011;56358;56.328;43.992;2022-12-29T00:19:55;28.73;;;10.55;;
69246;SDS011;56358;56.328;43.992;2022-12-29T00:22:14;28.58;;;11.13;;
69246;SDS011;56358;56.328;43.992;2022-12-29T00:24:34;21.50;;;10.38;;
69246;SDS011;56358;56.328;43.992;2022-12-29T00:27:12;32.83;;;11.75;;
69246;SDS011;56358;56.328;43.992;2022-12-29T00:29:31;26.67;;;10.75;;
69246;SDS011;56358;56.328;43.992;2022-12-29T00:31:50;34.55;;;11.35;;
69246;SDS011;56358;56.328;43.992;2022-12-29T00:34:10;36.55;;;10.95;;
69246;SDS011;56358;56.328;43.992;2022-12-29T00:38:37;31.08;;;12.68;;
69246;SDS011;56358;56.328;43.992;2022-12-29T00:41:00;25.95;;;9.63;;
69246;SDS011;56358;56.328;43.992;2022-12-29T00:43:19;29.92;;;10.95;;
69246;SDS011;56358;56.328;43.992;2022-12-29T00:45:40;26.60;;;11.32;;
69246;SDS011;56358;56.328;43.992;2022-12-29T00:47:41;26.05;;;10.57;;
69246;SDS011;56358;56.328;43.992;2022-12-29T00:49:42;31.10;;;10.70;;
69246;SDS011;56358;56.328;43.992;2022-12-29T00:51:42;17.52;;;7.25;;
69246;SDS011;56358;56.328;43.992;2022-12-29T00:53:43;29.92;;;10.88;;
69246;SDS011;56358;56.328;43.992;2022-12-29T00:55:44;24.48;;;10.15;;
69246;SDS011;56358;56.328;43.992;2022-12-29T00:57:44;30.05;;;10.93;;
69246;SDS011;56358;56.328;43.992;2022-12-29T00:59:45;26.17;;;11.05;;
69246;SDS011;56358;56.328;43.992;2022-12-29T01:01:46;29.35;;;11.18;;
69246;SDS011;56358;56.328;43.992;2022-12-29T01:03:47;22.10;;;8.68;;
69246;SDS011;56358;56.328;43.992;2022-12-29T01:05:48;31.92;;;9.95;;
69246;SDS011;56358;56.328;43.992;2022-12-29T01:07:48;30.70;;;10.35;;
69246;SDS011;56358;56.328;43.992;2022-12-29T01:09:49;31.70;;;10.02;;
69246;SDS011;56358;56.328;43.992;2022-12-29T01:12:08;23.45;;;9.40;;
69246;SDS011;56358;56.328;43.992;2022-12-29T01:14:10;24.90;;;8.68;;
69246;SDS011;56358;56.328;43.992;2022-12-29T01:16:10;21.65;;;8.90;;
69246;SDS011;56358;56.328;43.992;2022-12-29T01:18:11;27.65;;;10.70;;
69246;SDS011;56358;56.328;43.992;2022-12-29T01:20:12;26.25;;;10.00;;
69246;SDS011;56358;56.328;43.992;2022-12-29T01:22:13;19.52;;;7.32;;
69246;SDS011;56358;56.328;43.992;2022-12-29T01:24:14;25.33;;;9.85;;
69246;SDS011;56358;56.328;43.992;2022-12-29T01:26:16;26.33;;;10.27;;
69246;SDS011;56358;56.328;43.992;2022-12-29T01:28:18;31.47;;;10.93;;
69246;SDS011;56358;56.328;43.992;2022-12-29T01:30:18;26.45;;;9.60;;
69246;SDS011;56358;56.328;43.992;2022-12-29T01:32:19;25.27;;;8.90;;
69246;SDS011;56358;56.328;43.992;2022-12-29T01:34:20;31.90;;;9.98;;
69246;SDS011;56358;56.328;43.992;2022-12-29T01:36:20;31.67;;;10.15;;
69246;SDS011;56358;56.328;43.992;2022-12-29T01:38:21;25.83;;;8.85;;
69246;SDS011;56358;56.328;43.992;2022-12-29T01:40:22;27.85;;;9.93;;
69246;SDS011;56358;56.328;43.992;2022-12-29T01:42:23;29.00;;;10.48;;
69246;SDS011;56358;56.328;43.992;2022-12-29T01:46:56;26.98;;;9.00;;
69246;SDS011;56358;56.328;43.992;2022-12-29T01:51:10;25.95;;;9.30;;
69246;SDS011;56358;56.328;43.992;2022-12-29T01:53:13;30.33;;;9.55;;
69246;SDS011;56358;56.328;43.992;2022-12-29T01:55:17;25.08;;;8.48;;
69246;SDS011;56358;56.328;43.992;2022-12-29T01:57:23;23.65;;;8.77;;
69246;SDS011;56358;56.328;43.992;2022-12-29T01:59:32;26.23;;;9.35;;
69246;SDS011;56358;56.328;43.992;2022-12-29T02:01:38;21.63;;;8.90;;
69246;SDS011;56358;56.328;43.992;2022-12-29T02:03:38;26.75;;;9.05;;
69246;SDS011;56358;56.328;43.992;2022-12-29T02:05:47;27.42;;;9.85;;
69246;SDS011;56358;56.328;43.992;2022-12-29T02:07:52;25.90;;;9.90;;
69246;SDS011;56358;56.328;43.992;2022-12-29T02:09:54;23.65;;;9.25;;
69246;SDS011;56358;56.328;43.992;2022-12-29T02:11:56;26.58;;;9.68;;
69246;SDS011;56358;56.328;43.992;2022-12-29T02:13:58;28.98;;;10.70;;
69246;SDS011;56358;56.328;43.992;2022-12-29T02:33:51;24.42;;;9.10;;
69246;SDS011;56358;56.328;43.992;2022-12-29T02:35:49;21.00;;;8.38;;
69246;SDS011;56358;56.328;43.992;2022-12-29T02:38:18;29.98;;;10.77;;
69246;SDS011;56358;56.328;43.992;2022-12-29T02:47:11;30.08;;;10.05;;
69246;SDS011;56358;56.328;43.992;2022-12-29T02:49:22;29.70;;;10.60;;
69246;SDS011;56358;56.328;43.992;2022-12-29T02:51:33;29.85;;;10.00;;
69246;SDS011;56358;56.328;43.992;2022-12-29T02:53:40;30.10;;;10.07;;
69246;SDS011;56358;56.328;43.992;2022-12-29T02:55:59;25.80;;;10.25;;
69246;SDS011;56358;56.328;43.992;2022-12-29T02:58:13;24.55;;;9.68;;
69246;SDS011;56358;56.328;43.992;2022-12-29T03:00:22;23.42;;;9.38;;
69246;SDS011;56358;56.328;43.992;2022-12-29T03:12:00;24.45;;;9.82;;
69246;SDS011;56358;56.328;43.992;2022-12-29T03:14:16;30.25;;;9.52;;
69246;SDS011;56358;56.328;43.992;2022-12-29T03:16:44;28.83;;;9.18;;
69246;SDS011;56358;56.328;43.992;2022-12-29T03:21:35;26.75;;;8.48;;
69246;SDS011;56358;56.328;43.992;2022-12-29T03:23:58;22.83;;;9.45;;
69246;SDS011;56358;56.328;43.992;2022-12-29T03:25:59;35.30;;;11.30;;
69246;SDS011;56358;56.328;43.992;2022-12-29T03:28:10;31.70;;;10.30;;
69246;SDS011;56358;56.328;43.992;2022-12-29T03:30:13;31.08;;;8.63;;
69246;SDS011;56358;56.328;43.992;2022-12-29T03:32:15;24.58;;;9.77;;
69246;SDS011;56358;56.328;43.992;2022-12-29T03:34:16;29.77;;;11.70;;
69246;SDS011;56358;56.328;43.992;2022-12-29T03:36:23;28.85;;;9.70;;
69246;SDS011;56358;56.328;43.992;2022-12-29T03:38:35;23.40;;;8.73;;
69246;SDS011;56358;56.328;43.992;2022-12-29T03:40:43;29.55;;;10.40;;
69246;SDS011;56358;56.328;43.992;2022-12-29T03:42:47;30.73;;;9.55;;
69246;SDS011;56358;56.328;43.992;2022-12-29T03:44:48;27.60;;;10.10;;
69246;SDS011;56358;56.328;43.992;2022-12-29T03:46:48;32.15;;;11.52;;
69246;SDS011;56358;56.328;43.992;2022-12-29T03:48:50;27.30;;;10.57;;
69246;SDS011;56358;56.328;43.992;2022-12-29T03:50:51;27.45;;;10.35;;
69246;SDS011;56358;56.328;43.992;2022-12-29T03:52:51;30.85;;;10.27;;
69246;SDS011;56358;56.328;43.992;2022-12-29T03:54:52;32.80;;;10.30;;
69246;SDS011;56358;56.328;43.992;2022-12-29T03:56:53;30.02;;;10.77;;
69246;SDS011;56358;56.328;43.992;2022-12-29T03:58:53;35.65;;;11.70;;
69246;SDS011;56358;56.328;43.992;2022-12-29T04:00:54;22.40;;;9.65;;
69246;SDS011;56358;56.328;43.992;2022-12-29T04:02:55;26.13;;;10.23;;
69246;SDS011;56358;56.328;43.992;2022-12-29T04:04:55;29.52;;;9.88;;
69246;SDS011;56358;56.328;43.992;2022-12-29T04:06:56;33.60;;;11.13;;
69246;SDS011;56358;56.328;43.992;2022-12-29T04:08:57;29.90;;;10.60;;
69246;SDS011;56358;56.328;43.992;2022-12-29T04:10:57;30.77;;;11.10;;
69246;SDS011;56358;56.328;43.992;2022-12-29T04:12:58;34.13;;;10.48;;
69246;SDS011;56358;56.328;43.992;2022-12-29T04:14:59;27.75;;;9.77;;
69246;SDS011;56358;56.328;43.992;2022-12-29T04:16:59;32.67;;;11.38;;
69246;SDS011;56358;56.328;43.992;2022-12-29T04:19:00;26.35;;;10.32;;
69246;SDS011;56358;56.328;43.992;2022-12-29T04:21:01;28.77;;;12.23;;
69246;SDS011;56358;56.328;43.992;2022-12-29T04:23:03;26.17;;;11.10;;
69246;SDS011;56358;56.328;43.992;2022-12-29T04:25:05;31.95;;;11.70;;
69246;SDS011;56358;56.328;43.992;2022-12-29T04:27:06;35.20;;;11.18;;
69246;SDS011;56358;56.328;43.992;2022-12-29T04:29:06;35.00;;;11.75;;
69246;SDS011;56358;56.328;43.992;2022-12-29T04:31:07;33.33;;;12.38;;
69246;SDS011;56358;56.328;43.992;2022-12-29T04:33:08;38.17;;;11.68;;
69246;SDS011;56358;56.328;43.992;2022-12-29T04:35:08;25.65;;;11.15;;
69246;SDS011;56358;56.328;43.992;2022-12-29T04:37:09;30.63;;;12.60;;
69246;SDS011;56358;56.328;43.992;2022-12-29T04:39:09;28.17;;;11.13;;
69246;SDS011;56358;56.328;43.992;2022-12-29T04:41:10;30.70;;;11.65;;
69246;SDS011;56358;56.328;43.992;2022-12-29T04:43:11;27.35;;;11.27;;
69246;SDS011;56358;56.328;43.992;2022-12-29T04:45:12;26.70;;;9.85;;
69246;SDS011;56358;56.328;43.992;2022-12-29T04:47:13;26.92;;;11.57;;
69246;SDS011;56358;56.328;43.992;2022-12-29T04:49:13;28.80;;;10.05;;
69246;SDS011;56358;56.328;43.992;2022-12-29T04:51:14;28.73;;;10.50;;
69246;SDS011;56358;56.328;43.992;2022-12-29T04:53:15;29.88;;;9.57;;
69246;SDS011;56358;56.328;43.992;2022-12-29T04:55:17;25.88;;;9.45;;
69246;SDS011;56358;56.328;43.992;2022-12-29T04:57:17;25.67;;;9.88;;
69246;SDS011;56358;56.328;43.992;2022-12-29T04:59:18;21.90;;;8.02;;
69246;SDS011;56358;56.328;43.992;2022-12-29T05:01:19;20.15;;;8.85;;
69246;SDS011;56358;56.328;43.992;2022-12-29T05:03:19;20.33;;;8.55;;
69246;SDS011;56358;56.328;43.992;2022-12-29T05:05:20;27.02;;;9.30;;
69246;SDS011;56358;56.328;43.992;2022-12-29T05:07:20;29.38;;;9.32;;
69246;SDS011;56358;56.328;43.992;2022-12-29T05:09:21;23.20;;;7.82;;
69246;SDS011;56358;56.328;43.992;2022-12-29T05:11:22;29.67;;;9.30;;
69246;SDS011;56358;56.328;43.992;2022-12-29T05:13:22;22.67;;;9.48;;
69246;SDS011;56358;56.328;43.992;2022-12-29T05:15:23;22.67;;;8.52;;
69246;SDS011;56358;56.328;43.992;2022-12-29T05:17:24;28.58;;;9.73;;
69246;SDS011;56358;56.328;43.992;2022-12-29T05:19:24;27.60;;;8.85;;
69246;SDS011;56358;56.328;43.992;2022-12-29T05:21:25;20.88;;;8.48;;
69246;SDS011;56358;56.328;43.992;2022-12-29T05:23:25;25.25;;;9.23;;
69246;SDS011;56358;56.328;43.992;2022-12-29T05:25:26;23.05;;;10.20;;
69246;SDS011;56358;56.328;43.992;2022-12-29T05:27:27;27.38;;;9.43;;
69246;SDS011;56358;56.328;43.992;2022-12-29T05:29:27;26.58;;;8.65;;
69246;SDS011;56358;56.328;43.992;2022-12-29T05:31:28;23.63;;;8.55;;
69246;SDS011;56358;56.328;43.992;2022-12-29T05:33:29;23.60;;;7.97;;
69246;SDS011;56358;56.328;43.992;2022-12-29T05:35:29;21.73;;;8.85;;
69246;SDS011;56358;56.328;43.992;2022-12-29T05:37:30;21.75;;;7.47;;
69246;SDS011;56358;56.328;43.992;2022-12-29T05:39:30;21.42;;;7.45;;
69246;SDS011;56358;56.328;43.992;2022-12-29T05:41:31;19.13;;;7.80;;
69246;SDS011;56358;56.328;43.992;2022-12-29T05:43:32;21.00;;;9.02;;
69246;SDS011;56358;56.328;43.992;2022-12-29T05:45:32;21.33;;;8.10;;
69246;SDS011;56358;56.328;43.992;2022-12-29T05:47:33;23.20;;;8.27;;
69246;SDS011;56358;56.328;43.992;2022-12-29T05:49:34;20.52;;;7.97;;
69246;SDS011;56358;56.328;43.992;2022-12-29T05:51:35;22.38;;;8.57;;
69246;SDS011;56358;56.328;43.992;2022-12-29T05:53:36;22.48;;;10.13;;
69246;SDS011;56358;56.328;43.992;2022-12-29T05:55:36;24.08;;;9.27;;
69246;SDS011;56358;56.328;43.992;2022-12-29T05:57:37;28.02;;;9.63;;
69246;SDS011;56358;56.328;43.992;2022-12-29T05:59:38;26.55;;;8.95;;
69246;SDS011;56358;56.328;43.992;2022-12-29T06:01:38;35.28;;;10.20;;
69246;SDS011;56358;56.328;43.992;2022-12-29T06:03:39;29.15;;;10.63;;
69246;SDS011;56358;56.328;43.992;2022-12-29T06:05:40;26.52;;;10.38;;
69246;SDS011;56358;56.328;43.992;2022-12-29T06:07:40;25.50;;;9.75;;
69246;SDS011;56358;56.328;43.992;2022-12-29T06:09:41;27.10;;;10.57;;
69246;SDS011;56358;56.328;43.992;2022-12-29T06:11:42;30.40;;;9.85;;
69246;SDS011;56358;56.328;43.992;2022-12-29T06:13:43;32.45;;;11.23;;
69246;SDS011;56358;56.328;43.992;2022-12-29T06:15:43;30.00;;;11.25;;
69246;SDS011;56358;56.328;43.992;2022-12-29T06:17:44;26.42;;;9.88;;
69246;SDS011;56358;56.328;43.992;2022-12-29T06:19:44;25.27;;;10.75;;
69246;SDS011;56358;56.328;43.992;2022-12-29T06:21:45;26.35;;;11.15;;
69246;SDS011;56358;56.328;43.992;2022-12-29T06:23:46;28.63;;;9.95;;
69246;SDS011;56358;56.328;43.992;2022-12-29T06:25:47;26.75;;;9.68;;
69246;SDS011;56358;56.328;43.992;2022-12-29T06:27:48;29.77;;;9.85;;
69246;SDS011;56358;56.328;43.992;2022-12-29T06:29:49;29.77;;;10.75;;
69246;SDS011;56358;56.328;43.992;2022-12-29T06:31:50;22.67;;;9.05;;
69246;SDS011;56358;56.328;43.992;2022-12-29T06:33:51;26.83;;;10.38;;
69246;SDS011;56358;56.328;43.992;2022-12-29T06:35:51;22.20;;;9.48;;
69246;SDS011;56358;56.328;43.992;2022-12-29T06:37:52;32.88;;;11.00;;
69246;SDS011;56358;56.328;43.992;2022-12-29T06:39:53;32.67;;;10.82;;
69246;SDS011;56358;56.328;43.992;2022-12-29T06:41:53;26.63;;;10.00;;
69246;SDS011;56358;56.328;43.992;2022-12-29T06:43:54;33.40;;;11.55;;
69246;SDS011;56358;56.328;43.992;2022-12-29T06:45:55;23.70;;;9.65;;
69246;SDS011;56358;56.328;43.992;2022-12-29T06:47:55;25.38;;;10.25;;
69246;SDS011;56358;56.328;43.992;2022-12-29T06:49:56;28.92;;;8.75;;
69246;SDS011;56358;56.328;43.992;2022-12-29T06:51:57;24.13;;;8.73;;
69246;SDS011;56358;56.328;43.992;2022-12-29T06:53:59;22.58;;;8.18;;
69246;SDS011;56358;56.328;43.992;2022-12-29T06:56:00;19.80;;;8.57;;
69246;SDS011;56358;56.328;43.992;2022-12-29T06:58:01;25.40;;;10.10;;
69246;SDS011;56358;56.328;43.992;2022-12-29T07:00:02;25.25;;;9.20;;
69246;SDS011;56358;56.328;43.992;2022-12-29T07:02:05;21.73;;;8.05;;
69246;SDS011;56358;56.328;43.992;2022-12-29T07:04:07;26.08;;;8.75;;
69246;SDS011;56358;56.328;43.992;2022-12-29T07:06:07;19.30;;;8.35;;
69246;SDS011;56358;56.328;43.992;2022-12-29T07:08:08;20.15;;;8.05;;
69246;SDS011;56358;56.328;43.992;2022-12-29T07:10:09;20.55;;;7.90;;
69246;SDS011;56358;56.328;43.992;2022-12-29T07:12:09;18.42;;;8.35;;
69246;SDS011;56358;56.328;43.992;2022-12-29T07:14:10;15.95;;;6.53;;
69246;SDS011;56358;56.328;43.992;2022-12-29T07:16:11;16.45;;;6.72;;
69246;SDS011;56358;56.328;43.992;2022-12-29T07:18:12;17.48;;;6.63;;
69246;SDS011;56358;56.328;43.992;2022-12-29T07:20:13;16.52;;;6.40;;
69246;SDS011;56358;56.328;43.992;2022-12-29T07:22:13;17.25;;;5.70;;
69246;SDS011;56358;56.328;43.992;2022-12-29T07:24:14;17.00;;;6.43;;
69246;SDS011;56358;56.328;43.992;2022-12-29T07:26:15;19.83;;;6.80;;
69246;SDS011;56358;56.328;43.992;2022-12-29T07:30:18;18.83;;;5.75;;
69246;SDS011;56358;56.328;43.992;2022-12-29T07:32:19;16.30;;;6.80;;
69246;SDS011;56358;56.328;43.992;2022-12-29T07:34:20;19.27;;;6.63;;
69246;SDS011;56358;56.328;43.992;2022-12-29T07:36:20;17.35;;;6.63;;
69246;SDS011;56358;56.328;43.992;2022-12-29T07:38:21;15.57;;;6.75;;
69246;SDS011;56358;56.328;43.992;2022-12-29T07:40:22;19.13;;;6.95;;
69246;SDS011;56358;56.328;43.992;2022-12-29T07:42:22;11.63;;;5.88;;
69246;SDS011;56358;56.328;43.992;2022-12-29T07:44:23;19.67;;;7.63;;
69246;SDS011;56358;56.328;43.992;2022-12-29T07:46:24;21.15;;;7.03;;
69246;SDS011;56358;56.328;43.992;2022-12-29T07:48:24;19.02;;;7.10;;
69246;SDS011;56358;56.328;43.992;2022-12-29T07:50:25;19.80;;;7.20;;
69246;SDS011;56358;56.328;43.992;2022-12-29T07:52:26;18.02;;;7.75;;
69246;SDS011;56358;56.328;43.992;2022-12-29T07:54:26;16.17;;;6.75;;
69246;SDS011;56358;56.328;43.992;2022-12-29T07:56:27;19.73;;;7.40;;
69246;SDS011;56358;56.328;43.992;2022-12-29T07:58:28;19.25;;;8.43;;
69246;SDS011;56358;56.328;43.992;2022-12-29T08:00:29;16.42;;;6.30;;
69246;SDS011;56358;56.328;43.992;2022-12-29T08:02:29;15.13;;;6.70;;
69246;SDS011;56358;56.328;43.992;2022-12-29T08:04:30;22.60;;;7.88;;
69246;SDS011;56358;56.328;43.992;2022-12-29T08:06:31;21.65;;;7.53;;
69246;SDS011;56358;56.328;43.992;2022-12-29T08:08:31;25.00;;;8.25;;
69246;SDS011;56358;56.328;43.992;2022-12-29T08:10:32;16.92;;;6.72;;
69246;SDS011;56358;56.328;43.992;2022-12-29T08:12:33;17.30;;;6.88;;
69246;SDS011;56358;56.328;43.992;2022-12-29T08:14:33;18.52;;;7.25;;
69246;SDS011;56358;56.328;43.992;2022-12-29T08:16:34;19.65;;;8.23;;
69246;SDS011;56358;56.328;43.992;2022-12-29T08:18:35;21.40;;;7.82;;
69246;SDS011;56358;56.328;43.992;2022-12-29T08:20:35;16.15;;;7.35;;
69246;SDS011;56358;56.328;43.992;2022-12-29T08:22:36;19.88;;;7.95;;
69246;SDS011;56358;56.328;43.992;2022-12-29T08:24:37;20.70;;;7.28;;
69246;SDS011;56358;56.328;43.992;2022-12-29T08:26:38;21.08;;;8.25;;
69246;SDS011;56358;56.328;43.992;2022-12-29T08:28:38;29.48;;;8.45;;
69246;SDS011;56358;56.328;43.992;2022-12-29T08:30:39;26.08;;;8.73;;
69246;SDS011;56358;56.328;43.992;2022-12-29T08:32:40;23.23;;;8.95;;
69246;SDS011;56358;56.328;43.992;2022-12-29T08:34:40;20.13;;;8.88;;
69246;SDS011;56358;56.328;43.992;2022-12-29T08:36:41;19.88;;;9.93;;
69246;SDS011;56358;56.328;43.992;2022-12-29T08:38:41;21.67;;;9.75;;
69246;SDS011;56358;56.328;43.992;2022-12-29T08:40:42;25.40;;;8.35;;
69246;SDS011;56358;56.328;43.992;2022-12-29T08:42:43;28.95;;;13.43;;
69246;SDS011;56358;56.328;43.992;2022-12-29T08:44:43;22.90;;;8.68;;
69246;SDS011;56358;56.328;43.992;2022-12-29T08:46:44;19.02;;;8.18;;
69246;SDS011;56358;56.328;43.992;2022-12-29T08:48:45;23.90;;;7.53;;
69246;SDS011;56358;56.328;43.992;2022-12-29T08:50:45;28.58;;;10.95;;
69246;SDS011;56358;56.328;43.992;2022-12-29T08:52:46;22.80;;;9.10;;
69246;SDS011;56358;56.328;43.992;2022-12-29T08:54:47;20.35;;;8.15;;
69246;SDS011;56358;56.328;43.992;2022-12-29T08:56:48;18.42;;;7.65;;
69246;SDS011;56358;56.328;43.992;2022-12-29T08:58:48;22.33;;;8.80;;
69246;SDS011;56358;56.328;43.992;2022-12-29T09:00:51;22.83;;;8.20;;
69246;SDS011;56358;56.328;43.992;2022-12-29T09:02:53;22.30;;;8.30;;
69246;SDS011;56358;56.328;43.992;2022-12-29T09:04:54;22.90;;;8.60;;
69246;SDS011;56358;56.328;43.992;2022-12-29T09:06:54;19.95;;;8.20;;
69246;SDS011;56358;56.328;43.992;2022-12-29T09:08:55;18.85;;;8.43;;
69246;SDS011;56358;56.328;43.992;2022-12-29T09:11:04;19.67;;;8.35;;
69246;SDS011;56358;56.328;43.992;2022-12-29T09:13:35;20.48;;;7.93;;
69246;SDS011;56358;56.328;43.992;2022-12-29T09:15:35;20.15;;;8.45;;
69246;SDS011;56358;56.328;43.992;2022-12-29T09:17:36;23.40;;;8.75;;
69246;SDS011;56358;56.328;43.992;2022-12-29T09:19:46;16.02;;;8.05;;
69246;SDS011;56358;56.328;43.992;2022-12-29T09:21:46;23.00;;;8.68;;
69246;SDS011;56358;56.328;43.992;2022-12-29T09:23:47;24.77;;;8.48;;
69246;SDS011;56358;56.328;43.992;2022-12-29T09:25:48;19.88;;;8.27;;
69246;SDS011;56358;56.328;43.992;2022-12-29T09:27:49;20.77;;;8.45;;
69246;SDS011;56358;56.328;43.992;2022-12-29T09:29:53;23.73;;;9.07;;
69246;SDS011;56358;56.328;43.992;2022-12-29T09:31:53;23.90;;;8.55;;
69246;SDS011;56358;56.328;43.992;2022-12-29T09:33:54;23.90;;;9.27;;
69246;SDS011;56358;56.328;43.992;2022-12-29T09:35:56;18.73;;;8.43;;
69246;SDS011;56358;56.328;43.992;2022-12-29T09:37:58;19.92;;;7.85;;
69246;SDS011;56358;56.328;43.992;2022-12-29T09:39:58;20.02;;;8.32;;
69246;SDS011;56358;56.328;43.992;2022-12-29T09:42:09;18.48;;;8.20;;
69246;SDS011;56358;56.328;43.992;2022-12-29T09:46:53;22.55;;;8.70;;
69246;SDS011;56358;56.328;43.992;2022-12-29T09:50:58;21.27;;;7.88;;
69246;SDS011;56358;56.328;43.992;2022-12-29T09:53:09;24.02;;;9.45;;
69246;SDS011;56358;56.328;43.992;2022-12-29T09:55:19;25.50;;;9.73;;
69246;SDS011;56358;56.328;43.992;2022-12-29T09:59:50;25.17;;;9.05;;
69246;SDS011;56358;56.328;43.992;2022-12-29T10:01:57;27.45;;;8.85;;
69246;SDS011;56358;56.328;43.992;2022-12-29T10:04:16;25.77;;;9.20;;
69246;SDS011;56358;56.328;43.992;2022-12-29T10:08:52;23.85;;;8.90;;
69246;SDS011;56358;56.328;43.992;2022-12-29T10:11:52;23.23;;;9.43;;
69246;SDS011;56358;56.328;43.992;2022-12-29T10:16:23;26.65;;;9.70;;
69246;SDS011;56358;56.328;43.992;2022-12-29T10:23:40;26.48;;;9.43;;
69246;SDS011;56358;56.328;43.992;2022-12-29T10:25:46;25.10;;;10.32;;
69246;SDS011;56358;56.328;43.992;2022-12-29T10:27:50;23.10;;;8.60;;
69246;SDS011;56358;56.328;43.992;2022-12-29T10:29:55;22.30;;;8.85;;
69246;SDS011;56358;56.328;43.992;2022-12-29T10:31:59;20.02;;;8.43;;
69246;SDS011;56358;56.328;43.992;2022-12-29T10:34:05;22.00;;;9.32;;
69246;SDS011;56358;56.328;43.992;2022-12-29T10:36:17;22.17;;;9.93;;
69246;SDS011;56358;56.328;43.992;2022-12-29T10:42:40;25.80;;;9.82;;
69246;SDS011;56358;56.328;43.992;2022-12-29T10:44:45;25.10;;;9.80;;
69246;SDS011;56358;56.328;43.992;2022-12-29T10:46:56;26.27;;;10.32;;
69246;SDS011;56358;56.328;43.992;2022-12-29T10:49:00;23.55;;;9.18;;
69246;SDS011;56358;56.328;43.992;2022-12-29T10:51:02;27.35;;;10.23;;
69246;SDS011;56358;56.328;43.992;2022-12-29T10:53:05;28.60;;;9.02;;
69246;SDS011;56358;56.328;43.992;2022-12-29T10:55:13;23.35;;;9.20;;
69246;SDS011;56358;56.328;43.992;2022-12-29T10:57:24;24.65;;;9.57;;
69246;SDS011;56358;56.328;43.992;2022-12-29T10:59:29;28.90;;;10.32;;
69246;SDS011;56358;56.328;43.992;2022-12-29T11:01:34;26.88;;;9.52;;
69246;SDS011;56358;56.328;43.992;2022-12-29T11:03:42;25.88;;;9.50;;
69246;SDS011;56358;56.328;43.992;2022-12-29T11:06:09;27.63;;;9.98;;
69246;SDS011;56358;56.328;43.992;2022-12-29T11:08:30;27.67;;;10.48;;
69246;SDS011;56358;56.328;43.992;2022-12-29T11:10:37;26.17;;;9.52;;
69246;SDS011;56358;56.328;43.992;2022-12-29T11:12:54;24.20;;;10.13;;
69246;SDS011;56358;56.328;43.992;2022-12-29T11:17:09;41.72;;;14.88;;
69246;SDS011;56358;56.328;43.992;2022-12-29T11:19:22;27.00;;;10.02;;
69246;SDS011;56358;56.328;43.992;2022-12-29T11:21:26;21.85;;;9.25;;
69246;SDS011;56358;56.328;43.992;2022-12-29T11:23:40;26.58;;;10.13;;
69246;SDS011;56358;56.328;43.992;2022-12-29T11:25:41;27.48;;;9.05;;
69246;SDS011;56358;56.328;43.992;2022-12-29T11:27:42;29.70;;;9.35;;
69246;SDS011;56358;56.328;43.992;2022-12-29T11:30:02;24.65;;;8.75;;
69246;SDS011;56358;56.328;43.992;2022-12-29T11:32:24;31.77;;;9.88;;
69246;SDS011;56358;56.328;43.992;2022-12-29T11:34:32;24.55;;;8.82;;
69246;SDS011;56358;56.328;43.992;2022-12-29T11:36:34;26.20;;;9.07;;
69246;SDS011;56358;56.328;43.992;2022-12-29T11:38:37;24.50;;;9.55;;
69246;SDS011;56358;56.328;43.992;2022-12-29T11:40:46;25.95;;;9.77;;
69246;SDS011;56358;56.328;43.992;2022-12-29T11:42:48;26.50;;;8.63;;
69246;SDS011;56358;56.328;43.992;2022-12-29T11:44:52;23.75;;;8.80;;
69246;SDS011;56358;56.328;43.992;2022-12-29T11:46:53;20.35;;;8.82;;
69246;SDS011;56358;56.328;43.992;2022-12-29T11:48:55;26.67;;;9.60;;
69246;SDS011;56358;56.328;43.992;2022-12-29T11:50:58;26.17;;;9.48;;
69246;SDS011;56358;56.328;43.992;2022-12-29T11:55:06;26.55;;;10.05;;
69246;SDS011;56358;56.328;43.992;2022-12-29T11:57:20;24.77;;;9.93;;
69246;SDS011;56358;56.328;43.992;2022-12-29T12:03:34;17.98;;;7.57;;
69246;SDS011;56358;56.328;43.992;2022-12-29T12:05:40;20.50;;;8.70;;
69246;SDS011;56358;56.328;43.992;2022-12-29T12:08:09;26.65;;;9.70;;
69246;SDS011;56358;56.328;43.992;2022-12-29T12:10:12;26.73;;;9.20;;
69246;SDS011;56358;56.328;43.992;2022-12-29T12:12:23;20.23;;;7.85;;
69246;SDS011;56358;56.328;43.992;2022-12-29T12:14:32;23.00;;;7.93;;
69246;SDS011;56358;56.328;43.992;2022-12-29T12:16:41;23.25;;;7.93;;
69246;SDS011;56358;56.328;43.992;2022-12-29T12:18:50;23.15;;;8.05;;
69246;SDS011;56358;56.328;43.992;2022-12-29T12:20:57;24.83;;;8.75;;
69246;SDS011;56358;56.328;43.992;2022-12-29T12:23:08;22.98;;;8.95;;
69246;SDS011;56358;56.328;43.992;2022-12-29T12:25:23;25.33;;;9.35;;
69246;SDS011;56358;56.328;43.992;2022-12-29T12:27:31;19.63;;;7.72;;
69246;SDS011;56358;56.328;43.992;2022-12-29T12:29:50;21.77;;;8.05;;
69246;SDS011;56358;56.328;43.992;2022-12-29T12:32:24;16.27;;;7.20;;
69246;SDS011;56358;56.328;43.992;2022-12-29T12:34:41;21.40;;;7.47;;
69246;SDS011;56358;56.328;43.992;2022-12-29T12:39:26;16.45;;;7.10;;
69246;SDS011;56358;56.328;43.992;2022-12-29T12:51:12;19.25;;;7.50;;
69246;SDS011;56358;56.328;43.992;2022-12-29T13:03:59;17.63;;;6.85;;
69246;SDS011;56358;56.328;43.992;2022-12-29T13:15:45;20.90;;;8.20;;
69246;SDS011;56358;56.328;43.992;2022-12-29T13:18:10;16.65;;;6.32;;
69246;SDS011;56358;56.328;43.992;2022-12-29T13:20:24;14.98;;;7.15;;
69246;SDS011;56358;56.328;43.992;2022-12-29T13:22:34;14.55;;;6.97;;
69246;SDS011;56358;56.328;43.992;2022-12-29T13:24:47;20.13;;;7.53;;
69246;SDS011;56358;56.328;43.992;2022-12-29T13:36:43;18.08;;;5.85;;
69246;SDS011;56358;56.328;43.992;2022-12-29T13:38:47;17.77;;;7.28;;
69246;SDS011;56358;56.328;43.992;2022-12-29T13:40:59;15.32;;;5.72;;
69246;SDS011;56358;56.328;43.992;2022-12-29T13:45:06;16.95;;;6.32;;
69246;SDS011;56358;56.328;43.992;2022-12-29T13:50:08;15.32;;;5.93;;
69246;SDS011;56358;56.328;43.992;2022-12-29T13:57:16;19.13;;;7.00;;
69246;SDS011;56358;56.328;43.992;2022-12-29T13:59:42;25.13;;;7.85;;
69246;SDS011;56358;56.328;43.992;2022-12-29T14:01:53;19.42;;;6.30;;
69246;SDS011;56358;56.328;43.992;2022-12-29T14:03:59;17.48;;;7.57;;
69246;SDS011;56358;56.328;43.992;2022-12-29T14:06:25;24.83;;;8.80;;
69246;SDS011;56358;56.328;43.992;2022-12-29T14:08:25;18.98;;;7.47;;
69246;SDS011;56358;56.328;43.992;2022-12-29T14:10:32;23.20;;;8.80;;
69246;SDS011;56358;56.328;43.992;2022-12-29T14:14:40;19.73;;;8.15;;
69246;SDS011;56358;56.328;43.992;2022-12-29T14:16:40;22.38;;;9.75;;